sensor_id;sensor_type;location;lat;lon;timestamp;temperature;humidity
43320;DHT22;28914;48.722;9.332;2023-04-28T00:01:20;13.60;62.10
43320;DHT22;28914;48.722;9.332;2023-04-28T00:06:39;13.60;61.90
43320;DHT22;28914;48.722;9.332;2023-04-28T00:11:59;13.60;61.60
43320;DHT22;28914;48.722;9.332;2023-04-28T00:17:18;13.70;62.90
43320;DHT22;28914;48.722;9.332;2023-04-28T00:22:37;13.70;63.60
43320;DHT22;28914;48.722;9.332;2023-04-28T00:27:56;13.80;62.30
43320;DHT22;28914;48.722;9.332;2023-04-28T00:33:15;13.80;62.20
43320;DHT22;28914;48.722;9.332;2023-04-28T00:38:35;13.90;62.10
43320;DHT22;28914;48.722;9.332;2023-04-28T00:43:54;13.90;62.20
43320;DHT22;28914;48.722;9.332;2023-04-28T00:49:16;14.00;62.40
43320;DHT22;28914;48.722;9.332;2023-04-28T00:54:36;14.00;62.20
43320;DHT22;28914;48.722;9.332;2023-04-28T00:59:55;14.00;62.10
43320;DHT22;28914;48.722;9.332;2023-04-28T01:05:15;14.10;62.50
43320;DHT22;28914;48.722;9.332;2023-04-28T01:10:34;14.10;62.30
43320;DHT22;28914;48.722;9.332;2023-04-28T01:15:57;14.10;62.30
43320;DHT22;28914;48.722;9.332;2023-04-28T01:21:25;14.10;62.70
43320;DHT22;28914;48.722;9.332;2023-04-28T01:26:46;14.20;63.00
43320;DHT22;28914;48.722;9.332;2023-04-28T01:32:06;14.20;62.50
43320;DHT22;28914;48.722;9.332;2023-04-28T01:37:25;14.20;62.90
43320;DHT22;28914;48.722;9.332;2023-04-28T01:42:44;14.30;62.70
43320;DHT22;28914;48.722;9.332;2023-04-28T01:48:04;14.30;62.80
43320;DHT22;28914;48.722;9.332;2023-04-28T01:53:23;14.30;63.70
43320;DHT22;28914;48.722;9.332;2023-04-28T01:58:42;14.30;63.40
43320;DHT22;28914;48.722;9.332;2023-04-28T02:04:01;14.30;63.50
43320;DHT22;28914;48.722;9.332;2023-04-28T02:09:21;14.40;63.40
43320;DHT22;28914;48.722;9.332;2023-04-28T02:14:40;14.40;63.30
43320;DHT22;28914;48.722;9.332;2023-04-28T02:19:59;14.40;63.50
43320;DHT22;28914;48.722;9.332;2023-04-28T02:25:18;14.40;64.60
43320;DHT22;28914;48.722;9.332;2023-04-28T02:30:37;14.40;64.80
43320;DHT22;28914;48.722;9.332;2023-04-28T02:36:01;14.40;65.30
43320;DHT22;28914;48.722;9.332;2023-04-28T02:41:21;14.40;65.00
43320;DHT22;28914;48.722;9.332;2023-04-28T02:46:40;14.40;65.00
43320;DHT22;28914;48.722;9.332;2023-04-28T02:52:00;14.30;65.00
43320;DHT22;28914;48.722;9.332;2023-04-28T02:57:19;14.40;64.70
43320;DHT22;28914;48.722;9.332;2023-04-28T03:02:38;14.40;64.60
43320;DHT22;28914;48.722;9.332;2023-04-28T03:07:57;14.40;64.80
43320;DHT22;28914;48.722;9.332;2023-04-28T03:13:17;14.40;64.80
43320;DHT22;28914;48.722;9.332;2023-04-28T03:18:36;14.50;65.00
43320;DHT22;28914;48.722;9.332;2023-04-28T03:23:55;14.50;65.30
43320;DHT22;28914;48.722;9.332;2023-04-28T03:29:14;14.50;65.70
43320;DHT22;28914;48.722;9.332;2023-04-28T03:34:34;14.50;65.80
43320;DHT22;28914;48.722;9.332;2023-04-28T03:39:53;14.50;66.20
43320;DHT22;28914;48.722;9.332;2023-04-28T03:45:12;14.50;66.50
43320;DHT22;28914;48.722;9.332;2023-04-28T03:50:32;14.50;66.80
43320;DHT22;28914;48.722;9.332;2023-04-28T03:55:51;14.50;67.30
43320;DHT22;28914;48.722;9.332;2023-04-28T04:01:10;14.40;67.40
43320;DHT22;28914;48.722;9.332;2023-04-28T04:06:30;14.40;67.30
43320;DHT22;28914;48.722;9.332;2023-04-28T04:11:50;14.40;67.60
43320;DHT22;28914;48.722;9.332;2023-04-28T04:17:09;14.50;68.20
43320;DHT22;28914;48.722;9.332;2023-04-28T04:22:28;14.50;68.40
43320;DHT22;28914;48.722;9.332;2023-04-28T04:27:48;14.50;68.40
43320;DHT22;28914;48.722;9.332;2023-04-28T04:33:07;14.50;68.40
43320;DHT22;28914;48.722;9.332;2023-04-28T04:38:27;14.50;69.20
43320;DHT22;28914;48.722;9.332;2023-04-28T04:43:47;14.50;69.70
43320;DHT22;28914;48.722;9.332;2023-04-28T04:49:06;14.50;69.50
43320;DHT22;28914;48.722;9.332;2023-04-28T04:54:25;14.50;69.60
43320;DHT22;28914;48.722;9.332;2023-04-28T04:59:44;14.50;69.60
43320;DHT22;28914;48.722;9.332;2023-04-28T05:05:04;14.60;69.70
43320;DHT22;28914;48.722;9.332;2023-04-28T05:10:24;14.60;70.10
43320;DHT22;28914;48.722;9.332;2023-04-28T05:15:43;14.60;69.90
43320;DHT22;28914;48.722;9.332;2023-04-28T05:21:03;14.60;70.50
43320;DHT22;28914;48.722;9.332;2023-04-28T05:26:22;14.60;70.40
43320;DHT22;28914;48.722;9.332;2023-04-28T05:31:42;14.70;70.70
43320;DHT22;28914;48.722;9.332;2023-04-28T05:37:01;14.70;71.30
43320;DHT22;28914;48.722;9.332;2023-04-28T05:42:20;14.70;71.30
43320;DHT22;28914;48.722;9.332;2023-04-28T05:47:40;14.80;71.90
43320;DHT22;28914;48.722;9.332;2023-04-28T05:52:59;14.80;72.40
43320;DHT22;28914;48.722;9.332;2023-04-28T05:58:18;14.80;72.40
43320;DHT22;28914;48.722;9.332;2023-04-28T06:03:37;14.80;75.40
43320;DHT22;28914;48.722;9.332;2023-04-28T06:08:58;14.90;74.70
43320;DHT22;28914;48.722;9.332;2023-04-28T06:14:18;14.90;74.20
43320;DHT22;28914;48.722;9.332;2023-04-28T06:19:37;14.90;74.00
43320;DHT22;28914;48.722;9.332;2023-04-28T06:24:56;14.90;74.50
43320;DHT22;28914;48.722;9.332;2023-04-28T06:30:21;14.90;75.00
43320;DHT22;28914;48.722;9.332;2023-04-28T06:35:41;14.80;74.60
43320;DHT22;28914;48.722;9.332;2023-04-28T06:41:00;14.90;75.70
43320;DHT22;28914;48.722;9.332;2023-04-28T06:46:19;14.80;75.90
43320;DHT22;28914;48.722;9.332;2023-04-28T06:51:38;14.80;75.60
43320;DHT22;28914;48.722;9.332;2023-04-28T06:56:58;14.90;76.20
43320;DHT22;28914;48.722;9.332;2023-04-28T07:02:17;14.90;76.50
43320;DHT22;28914;48.722;9.332;2023-04-28T07:07:36;14.90;76.20
43320;DHT22;28914;48.722;9.332;2023-04-28T07:12:59;15.00;76.40
43320;DHT22;28914;48.722;9.332;2023-04-28T07:18:18;15.00;76.30
43320;DHT22;28914;48.722;9.332;2023-04-28T07:23:37;15.10;76.50
43320;DHT22;28914;48.722;9.332;2023-04-28T07:28:58;15.20;77.00
43320;DHT22;28914;48.722;9.332;2023-04-28T07:34:17;15.20;76.50
43320;DHT22;28914;48.722;9.332;2023-04-28T07:39:36;15.30;78.00
43320;DHT22;28914;48.722;9.332;2023-04-28T07:44:57;15.40;77.10
43320;DHT22;28914;48.722;9.332;2023-04-28T07:50:16;15.40;77.10
43320;DHT22;28914;48.722;9.332;2023-04-28T07:55:35;15.60;77.60
43320;DHT22;28914;48.722;9.332;2023-04-28T08:00:55;15.70;77.70
43320;DHT22;28914;48.722;9.332;2023-04-28T08:06:14;15.80;77.60
43320;DHT22;28914;48.722;9.332;2023-04-28T08:11:33;15.80;77.50
43320;DHT22;28914;48.722;9.332;2023-04-28T08:16:53;15.90;77.50
43320;DHT22;28914;48.722;9.332;2023-04-28T08:22:12;16.00;77.40
43320;DHT22;28914;48.722;9.332;2023-04-28T08:27:31;16.10;77.50
43320;DHT22;28914;48.722;9.332;2023-04-28T08:32:52;16.10;77.30
43320;DHT22;28914;48.722;9.332;2023-04-28T08:38:12;16.10;77.60
43320;DHT22;28914;48.722;9.332;2023-04-28T08:43:36;16.10;77.50
43320;DHT22;28914;48.722;9.332;2023-04-28T08:48:59;16.20;78.00
43320;DHT22;28914;48.722;9.332;2023-04-28T08:54:21;16.30;78.30
43320;DHT22;28914;48.722;9.332;2023-04-28T08:59:41;16.40;78.50
43320;DHT22;28914;48.722;9.332;2023-04-28T09:05:01;16.60;79.10
43320;DHT22;28914;48.722;9.332;2023-04-28T09:10:24;16.60;78.80
43320;DHT22;28914;48.722;9.332;2023-04-28T09:15:44;16.70;78.80
43320;DHT22;28914;48.722;9.332;2023-04-28T09:21:09;16.80;78.50
43320;DHT22;28914;48.722;9.332;2023-04-28T09:26:47;16.90;78.70
43320;DHT22;28914;48.722;9.332;2023-04-28T09:32:15;17.00;79.30
43320;DHT22;28914;48.722;9.332;2023-04-28T09:37:34;17.00;78.60
43320;DHT22;28914;48.722;9.332;2023-04-28T09:42:55;17.20;79.00
43320;DHT22;28914;48.722;9.332;2023-04-28T09:48:15;17.30;79.30
43320;DHT22;28914;48.722;9.332;2023-04-28T09:53:34;17.40;79.10
43320;DHT22;28914;48.722;9.332;2023-04-28T09:58:53;17.60;79.30
43320;DHT22;28914;48.722;9.332;2023-04-28T10:04:14;17.70;79.30
43320;DHT22;28914;48.722;9.332;2023-04-28T10:09:35;18.00;80.80
43320;DHT22;28914;48.722;9.332;2023-04-28T10:14:54;18.10;80.20
43320;DHT22;28914;48.722;9.332;2023-04-28T10:20:15;18.40;80.60
43320;DHT22;28914;48.722;9.332;2023-04-28T10:25:36;18.60;80.60
43320;DHT22;28914;48.722;9.332;2023-04-28T10:31:22;18.90;80.50
43320;DHT22;28914;48.722;9.332;2023-04-28T10:36:50;19.30;79.70
43320;DHT22;28914;48.722;9.332;2023-04-28T10:48:07;19.80;79.00
43320;DHT22;28914;48.722;9.332;2023-04-28T10:59:24;20.10;78.50
43320;DHT22;28914;48.722;9.332;2023-04-28T11:05:11;20.20;78.70
43320;DHT22;28914;48.722;9.332;2023-04-28T11:11:12;20.50;78.60
43320;DHT22;28914;48.722;9.332;2023-04-28T11:22:20;21.20;79.50
43320;DHT22;28914;48.722;9.332;2023-04-28T11:27:40;21.60;78.70
43320;DHT22;28914;48.722;9.332;2023-04-28T11:32:59;22.10;78.00
43320;DHT22;28914;48.722;9.332;2023-04-28T11:38:18;22.50;76.60
43320;DHT22;28914;48.722;9.332;2023-04-28T11:43:37;22.70;75.60
43320;DHT22;28914;48.722;9.332;2023-04-28T11:49:04;22.70;74.60
43320;DHT22;28914;48.722;9.332;2023-04-28T11:54:26;22.80;73.90
43320;DHT22;28914;48.722;9.332;2023-04-28T11:59:45;22.90;74.80
43320;DHT22;28914;48.722;9.332;2023-04-28T12:05:06;23.00;73.30
43320;DHT22;28914;48.722;9.332;2023-04-28T12:10:25;23.00;72.80
43320;DHT22;28914;48.722;9.332;2023-04-28T12:15:44;23.00;72.80
43320;DHT22;28914;48.722;9.332;2023-04-28T12:21:04;22.90;73.10
43320;DHT22;28914;48.722;9.332;2023-04-28T12:26:37;22.80;72.00
43320;DHT22;28914;48.722;9.332;2023-04-28T12:31:57;22.70;72.50
43320;DHT22;28914;48.722;9.332;2023-04-28T12:37:16;22.60;72.80
43320;DHT22;28914;48.722;9.332;2023-04-28T12:42:36;22.70;73.40
43320;DHT22;28914;48.722;9.332;2023-04-28T12:47:56;22.70;73.60
43320;DHT22;28914;48.722;9.332;2023-04-28T12:53:15;22.70;73.60
43320;DHT22;28914;48.722;9.332;2023-04-28T12:58:34;22.80;73.60
43320;DHT22;28914;48.722;9.332;2023-04-28T13:03:54;22.90;73.30
43320;DHT22;28914;48.722;9.332;2023-04-28T13:09:14;23.00;74.00
43320;DHT22;28914;48.722;9.332;2023-04-28T13:14:33;23.00;72.40
43320;DHT22;28914;48.722;9.332;2023-04-28T13:19:52;23.10;72.20
43320;DHT22;28914;48.722;9.332;2023-04-28T13:25:12;23.10;71.60
43320;DHT22;28914;48.722;9.332;2023-04-28T13:30:31;22.90;71.20
43320;DHT22;28914;48.722;9.332;2023-04-28T13:35:52;22.70;72.30
43320;DHT22;28914;48.722;9.332;2023-04-28T13:41:10;22.80;73.60
43320;DHT22;28914;48.722;9.332;2023-04-28T13:46:30;23.00;74.00
43320;DHT22;28914;48.722;9.332;2023-04-28T13:51:49;23.20;73.50
43320;DHT22;28914;48.722;9.332;2023-04-28T13:57:08;23.40;72.50
43320;DHT22;28914;48.722;9.332;2023-04-28T14:02:28;23.40;71.50
43320;DHT22;28914;48.722;9.332;2023-04-28T14:07:47;23.20;71.10
43320;DHT22;28914;48.722;9.332;2023-04-28T14:13:06;23.00;71.40
43320;DHT22;28914;48.722;9.332;2023-04-28T14:18:26;22.80;72.20
43320;DHT22;28914;48.722;9.332;2023-04-28T14:23:46;22.70;72.10
43320;DHT22;28914;48.722;9.332;2023-04-28T14:29:05;22.70;72.40
43320;DHT22;28914;48.722;9.332;2023-04-28T14:34:24;22.70;72.10
43320;DHT22;28914;48.722;9.332;2023-04-28T14:39:43;22.60;72.30
43320;DHT22;28914;48.722;9.332;2023-04-28T14:45:04;22.50;72.60
43320;DHT22;28914;48.722;9.332;2023-04-28T14:50:24;22.40;73.60
43320;DHT22;28914;48.722;9.332;2023-04-28T14:55:43;22.50;74.20
43320;DHT22;28914;48.722;9.332;2023-04-28T15:01:03;22.70;74.10
43320;DHT22;28914;48.722;9.332;2023-04-28T15:06:22;22.80;74.30
43320;DHT22;28914;48.722;9.332;2023-04-28T15:11:41;22.80;73.70
43320;DHT22;28914;48.722;9.332;2023-04-28T15:17:00;22.80;73.10
43320;DHT22;28914;48.722;9.332;2023-04-28T15:22:19;22.70;72.30
43320;DHT22;28914;48.722;9.332;2023-04-28T15:27:39;22.50;72.80
43320;DHT22;28914;48.722;9.332;2023-04-28T15:32:59;22.40;72.50
43320;DHT22;28914;48.722;9.332;2023-04-28T15:38:18;22.20;72.50
43320;DHT22;28914;48.722;9.332;2023-04-28T15:43:37;22.00;72.40
43320;DHT22;28914;48.722;9.332;2023-04-28T15:48:57;21.70;72.80
43320;DHT22;28914;48.722;9.332;2023-04-28T15:54:16;21.50;73.50
43320;DHT22;28914;48.722;9.332;2023-04-28T15:59:36;21.30;74.00
43320;DHT22;28914;48.722;9.332;2023-04-28T16:04:55;21.10;74.50
43320;DHT22;28914;48.722;9.332;2023-04-28T16:10:14;21.00;74.70
43320;DHT22;28914;48.722;9.332;2023-04-28T16:15:34;21.00;74.80
43320;DHT22;28914;48.722;9.332;2023-04-28T16:20:53;20.90;75.10
43320;DHT22;28914;48.722;9.332;2023-04-28T16:26:13;20.80;75.10
43320;DHT22;28914;48.722;9.332;2023-04-28T16:31:32;20.80;75.50
43320;DHT22;28914;48.722;9.332;2023-04-28T16:36:52;20.60;76.70
43320;DHT22;28914;48.722;9.332;2023-04-28T16:42:11;20.50;77.30
43320;DHT22;28914;48.722;9.332;2023-04-28T16:47:30;20.30;77.20
43320;DHT22;28914;48.722;9.332;2023-04-28T16:52:49;20.20;77.60
43320;DHT22;28914;48.722;9.332;2023-04-28T16:58:08;20.20;79.60
43320;DHT22;28914;48.722;9.332;2023-04-28T17:03:28;20.20;80.20
43320;DHT22;28914;48.722;9.332;2023-04-28T17:08:47;20.20;79.50
43320;DHT22;28914;48.722;9.332;2023-04-28T17:14:06;20.10;79.20
43320;DHT22;28914;48.722;9.332;2023-04-28T17:19:25;20.10;79.20
43320;DHT22;28914;48.722;9.332;2023-04-28T17:24:44;20.10;79.40
43320;DHT22;28914;48.722;9.332;2023-04-28T17:30:07;20.10;79.80
43320;DHT22;28914;48.722;9.332;2023-04-28T17:35:26;20.00;80.20
43320;DHT22;28914;48.722;9.332;2023-04-28T17:40:45;20.00;80.30
43320;DHT22;28914;48.722;9.332;2023-04-28T17:46:06;20.00;81.00
43320;DHT22;28914;48.722;9.332;2023-04-28T17:51:25;19.90;80.80
43320;DHT22;28914;48.722;9.332;2023-04-28T17:56:45;19.80;81.00
43320;DHT22;28914;48.722;9.332;2023-04-28T18:02:08;19.80;81.10
43320;DHT22;28914;48.722;9.332;2023-04-28T18:07:27;19.70;80.70
43320;DHT22;28914;48.722;9.332;2023-04-28T18:12:46;19.60;80.60
43320;DHT22;28914;48.722;9.332;2023-04-28T18:18:05;19.40;80.60
43320;DHT22;28914;48.722;9.332;2023-04-28T18:23:25;19.30;81.00
43320;DHT22;28914;48.722;9.332;2023-04-28T18:28:45;19.10;80.70
43320;DHT22;28914;48.722;9.332;2023-04-28T18:34:06;18.90;80.80
43320;DHT22;28914;48.722;9.332;2023-04-28T18:39:25;18.70;81.10
43320;DHT22;28914;48.722;9.332;2023-04-28T18:44:44;18.60;81.20
43320;DHT22;28914;48.722;9.332;2023-04-28T18:50:04;18.40;81.70
43320;DHT22;28914;48.722;9.332;2023-04-28T18:55:25;18.20;81.70
43320;DHT22;28914;48.722;9.332;2023-04-28T19:00:44;18.10;81.70
43320;DHT22;28914;48.722;9.332;2023-04-28T19:06:04;17.90;81.90
43320;DHT22;28914;48.722;9.332;2023-04-28T19:11:23;17.80;82.10
43320;DHT22;28914;48.722;9.332;2023-04-28T19:16:42;17.60;82.10
43320;DHT22;28914;48.722;9.332;2023-04-28T19:22:02;17.50;82.20
43320;DHT22;28914;48.722;9.332;2023-04-28T19:27:21;17.40;82.60
43320;DHT22;28914;48.722;9.332;2023-04-28T19:32:41;17.20;82.70
43320;DHT22;28914;48.722;9.332;2023-04-28T19:38:00;17.10;83.00
43320;DHT22;28914;48.722;9.332;2023-04-28T19:43:19;17.00;83.00
43320;DHT22;28914;48.722;9.332;2023-04-28T19:48:38;16.90;83.30
43320;DHT22;28914;48.722;9.332;2023-04-28T19:53:59;16.80;83.30
43320;DHT22;28914;48.722;9.332;2023-04-28T19:59:18;16.70;84.00
43320;DHT22;28914;48.722;9.332;2023-04-28T20:04:39;16.60;84.40
43320;DHT22;28914;48.722;9.332;2023-04-28T20:09:58;16.50;84.40
43320;DHT22;28914;48.722;9.332;2023-04-28T20:15:18;16.50;85.40
43320;DHT22;28914;48.722;9.332;2023-04-28T20:20:37;16.40;86.50
43320;DHT22;28914;48.722;9.332;2023-04-28T20:25:56;16.30;87.50
43320;DHT22;28914;48.722;9.332;2023-04-28T20:31:16;16.30;86.90
43320;DHT22;28914;48.722;9.332;2023-04-28T20:36:36;16.20;87.00
43320;DHT22;28914;48.722;9.332;2023-04-28T20:41:55;16.20;86.70
43320;DHT22;28914;48.722;9.332;2023-04-28T20:47:15;16.20;86.70
43320;DHT22;28914;48.722;9.332;2023-04-28T20:52:34;16.10;86.70
43320;DHT22;28914;48.722;9.332;2023-04-28T20:57:53;16.10;86.90
43320;DHT22;28914;48.722;9.332;2023-04-28T21:03:12;16.00;86.60
43320;DHT22;28914;48.722;9.332;2023-04-28T21:08:33;16.00;86.60
43320;DHT22;28914;48.722;9.332;2023-04-28T21:13:52;15.90;86.50
43320;DHT22;28914;48.722;9.332;2023-04-28T21:19:11;15.90;86.60
43320;DHT22;28914;48.722;9.332;2023-04-28T21:24:31;15.80;86.80
43320;DHT22;28914;48.722;9.332;2023-04-28T21:29:50;15.80;87.10
43320;DHT22;28914;48.722;9.332;2023-04-28T21:35:10;15.80;87.30
43320;DHT22;28914;48.722;9.332;2023-04-28T21:40:29;15.90;87.60
43320;DHT22;28914;48.722;9.332;2023-04-28T21:45:48;15.90;87.70
43320;DHT22;28914;48.722;9.332;2023-04-28T21:51:08;16.00;88.20
43320;DHT22;28914;48.722;9.332;2023-04-28T21:56:27;16.10;88.20
43320;DHT22;28914;48.722;9.332;2023-04-28T22:01:47;16.10;88.20
43320;DHT22;28914;48.722;9.332;2023-04-28T22:07:07;16.10;88.00
43320;DHT22;28914;48.722;9.332;2023-04-28T22:12:26;16.20;87.90
43320;DHT22;28914;48.722;9.332;2023-04-28T22:17:45;16.20;88.00
43320;DHT22;28914;48.722;9.332;2023-04-28T22:23:04;16.20;88.00
43320;DHT22;28914;48.722;9.332;2023-04-28T22:28:24;16.30;88.20
43320;DHT22;28914;48.722;9.332;2023-04-28T22:33:44;16.20;87.70
43320;DHT22;28914;48.722;9.332;2023-04-28T22:39:03;16.20;87.70
43320;DHT22;28914;48.722;9.332;2023-04-28T22:44:23;16.10;87.40
43320;DHT22;28914;48.722;9.332;2023-04-28T22:49:42;15.90;87.20
43320;DHT22;28914;48.722;9.332;2023-04-28T22:55:02;15.90;87.10
43320;DHT22;28914;48.722;9.332;2023-04-28T23:00:21;15.70;87.10
43320;DHT22;28914;48.722;9.332;2023-04-28T23:05:41;15.60;87.10
43320;DHT22;28914;48.722;9.332;2023-04-28T23:11:01;15.50;87.10
43320;DHT22;28914;48.722;9.332;2023-04-28T23:16:20;15.40;87.30
43320;DHT22;28914;48.722;9.332;2023-04-28T23:21:39;15.30;87.50
43320;DHT22;28914;48.722;9.332;2023-04-28T23:26:58;15.20;87.50
43320;DHT22;28914;48.722;9.332;2023-04-28T23:32:18;15.10;87.50
43320;DHT22;28914;48.722;9.332;2023-04-28T23:37:38;15.00;87.50
43320;DHT22;28914;48.722;9.332;2023-04-28T23:42:57;15.00;87.60
43320;DHT22;28914;48.722;9.332;2023-04-28T23:48:16;14.90;87.70
43320;DHT22;28914;48.722;9.332;2023-04-28T23:53:35;14.80;87.90
43320;DHT22;28914;48.722;9.332;2023-04-28T23:58:55;14.80;88.30
